createdAt,value
2023-01-11T00:01:38.202Z,100346.28
2023-01-11T00:04:05.238Z,100357.91
2023-01-11T00:06:32.154Z,100351.34
2023-01-11T00:08:59.582Z,100352.97
2023-01-11T00:11:26.923Z,100360.72
2023-01-11T00:13:53.736Z,100349.81
2023-01-11T00:16:20.561Z,100345.06
2023-01-11T00:18:47.380Z,100351.09
2023-01-11T00:21:14.959Z,100350.78
2023-01-11T00:23:41.889Z,100351.50
2023-01-11T00:26:13.177Z,100338.78
2023-01-11T00:28:40.170Z,100336.63
2023-01-11T00:31:07.101Z,100332.72
2023-01-11T00:33:34.575Z,100334.44
2023-01-11T00:36:01.535Z,100319.97
2023-01-11T00:38:46.945Z,100335.09
2023-01-11T00:41:34.650Z,100323.94
2023-01-11T00:44:21.343Z,100329.84
2023-01-11T00:47:09.662Z,100313.19
2023-01-11T00:49:36.836Z,100329.16
2023-01-11T00:52:11.472Z,100312.75
2023-01-11T00:54:40.568Z,100312.34
2023-01-11T00:57:08.745Z,100319.28
2023-01-11T00:59:39.350Z,100306.38
2023-01-11T01:02:07.900Z,100311.34
2023-01-11T01:04:35.019Z,100303.41
2023-01-11T01:07:01.965Z,100305.31
2023-01-11T01:09:29.007Z,100305.69
2023-01-11T01:11:55.916Z,100304.94
2023-01-11T01:14:26.095Z,100310.34
2023-01-11T01:16:55.334Z,100299.66
2023-01-11T01:19:22.898Z,100302.47
2023-01-11T01:21:50.976Z,100315.09
2023-01-11T01:24:17.979Z,100306.25
2023-01-11T01:26:44.927Z,100306.34
2023-01-11T01:29:11.997Z,100313.69
2023-01-11T01:31:38.908Z,100319.19
2023-01-11T01:34:06.537Z,100309.91
2023-01-11T01:36:33.867Z,100319.00
2023-01-11T01:39:01.644Z,100310.75
2023-01-11T01:41:29.172Z,100310.75
2023-01-11T01:44:01.398Z,100316.16
2023-01-11T01:46:33.736Z,100317.88
2023-01-11T01:49:11.575Z,100312.38
2023-01-11T01:51:55.723Z,100304.94
2023-01-11T01:54:34.620Z,100312.91
2023-01-11T01:57:19.946Z,100301.25
2023-01-11T01:59:52.113Z,100304.72
2023-01-11T02:02:24.881Z,100305.56
2023-01-11T02:04:55.725Z,100304.47
2023-01-11T02:07:33.520Z,100298.00
2023-01-11T02:10:04.369Z,100305.97
2023-01-11T02:12:39.917Z,100305.97
2023-01-11T02:15:10.167Z,100307.47
2023-01-11T02:17:37.220Z,100305.53
2023-01-11T02:20:34.924Z,100294.50
2023-01-11T02:23:37.491Z,100306.28
2023-01-11T02:26:47.290Z,100302.25
2023-01-11T02:29:47.307Z,100299.44
2023-01-11T02:32:27.864Z,100301.94
2023-01-11T02:35:32.300Z,100308.06
2023-01-11T02:38:13.865Z,100296.91
2023-01-11T02:41:10.837Z,100292.16
2023-01-11T02:44:07.679Z,100297.31
2023-01-11T02:46:59.141Z,100286.31
2023-01-11T02:49:28.755Z,100290.72
2023-01-11T02:52:08.539Z,100288.75
2023-01-11T02:54:42.358Z,100283.34
2023-01-11T02:57:11.697Z,100289.50
2023-01-11T02:59:42.137Z,100287.53
2023-01-11T03:02:09.841Z,100280.94
2023-01-11T03:04:37.856Z,100292.59
2023-01-11T03:07:44.804Z,100289.78
2023-01-11T03:10:33.530Z,100274.22
2023-01-11T03:13:16.929Z,100266.75
2023-01-11T03:16:13.571Z,100279.13
2023-01-11T03:18:50.411Z,100284.53
2023-01-11T03:21:42.818Z,100276.31
2023-01-11T03:24:15.743Z,100280.75
2023-01-11T03:27:29.080Z,100275.00
2023-01-11T03:30:14.389Z,100275.84
2023-01-11T03:32:54.379Z,100268.75
2023-01-11T03:35:40.839Z,100271.19
2023-01-11T03:38:27.643Z,100270.97
2023-01-11T03:41:06.795Z,100273.69
2023-01-11T03:43:40.350Z,100277.13
2023-01-11T03:46:14.912Z,100274.31
2023-01-11T03:48:53.782Z,100276.88
2023-01-11T03:51:37.349Z,100283.75
2023-01-11T03:54:09.965Z,100279.47
2023-01-11T03:56:54.056Z,100289.16
2023-01-11T03:59:20.961Z,100287.19
2023-01-11T04:01:47.796Z,100281.56
2023-01-11T04:04:14.638Z,100282.31
2023-01-11T04:06:41.637Z,100294.09
2023-01-11T04:09:08.474Z,100293.84
2023-01-11T04:11:35.253Z,100282.19
2023-01-11T04:14:02.290Z,100290.28
2023-01-11T04:16:29.335Z,100290.28
2023-01-11T04:18:56.443Z,100291.88
2023-01-11T04:21:23.267Z,100289.91
2023-01-11T04:23:50.107Z,100296.19
2023-01-11T04:26:17.635Z,100301.72
2023-01-11T04:28:45.122Z,100299.97
2023-01-11T04:31:12.705Z,100302.44
2023-01-11T04:33:39.520Z,100301.50
2023-01-11T04:36:09.609Z,100295.09
2023-01-11T04:38:37.838Z,100296.81
2023-01-11T04:41:23.841Z,100302.22
2023-01-11T04:43:53.638Z,100300.50
2023-01-11T04:46:20.556Z,100305.66
2023-01-11T04:48:47.321Z,100311.06
2023-01-11T04:51:14.117Z,100313.66
2023-01-11T04:53:40.895Z,100317.19
2023-01-11T04:56:08.582Z,100319.66
2023-01-11T04:58:38.064Z,100314.13
2023-01-11T05:01:11.171Z,100320.28
2023-01-11T05:03:38.317Z,100320.16
2023-01-11T05:06:05.686Z,100325.44
2023-01-11T05:08:33.170Z,100322.63
2023-01-11T05:11:03.479Z,100323.34
2023-01-11T05:13:43.257Z,100326.78
2023-01-11T05:16:26.239Z,100323.00
2023-01-11T05:18:59.069Z,100327.41
2023-01-11T05:21:31.457Z,100319.31
2023-01-11T05:24:00.856Z,100331.00
2023-01-11T05:26:35.270Z,100339.22
2023-01-11T05:29:06.330Z,100342.03
2023-01-11T05:31:36.274Z,100341.78
2023-01-11T05:34:03.707Z,100345.47
2023-01-11T05:36:30.534Z,100351.72
2023-01-11T05:38:57.656Z,100352.84
2023-01-11T05:41:27.478Z,100349.13
2023-01-11T05:44:14.171Z,100349.91
2023-01-11T05:46:44.139Z,100353.69
2023-01-11T05:49:13.428Z,100344.84
2023-01-11T05:51:42.303Z,100336.00
2023-01-11T05:54:14.561Z,100344.97
2023-01-11T05:56:42.975Z,100333.41
2023-01-11T05:59:10.280Z,100348.66
2023-01-11T06:01:37.328Z,100340.56
2023-01-11T06:04:07.089Z,100344.84
2023-01-11T06:06:34.373Z,100343.00
2023-01-11T06:09:01.359Z,100351.09
2023-01-11T06:11:28.284Z,100350.63
2023-01-11T06:13:55.303Z,100357.72
2023-01-11T06:16:23.593Z,100376.31
2023-01-11T06:18:53.408Z,100363.19
2023-01-11T06:21:21.410Z,100372.63
2023-01-11T06:23:53.878Z,100366.72
2023-01-11T06:26:23.282Z,100371.72
2023-01-11T06:28:51.440Z,100368.59
2023-01-11T06:31:19.119Z,100384.28
2023-01-11T06:33:47.236Z,100390.63
2023-01-11T06:36:16.129Z,100397.03
2023-01-11T06:38:43.874Z,100391.09
2023-01-11T06:41:12.467Z,100405.91
2023-01-11T06:43:42.226Z,100398.94
2023-01-11T06:46:15.269Z,100421.47
2023-01-11T06:48:43.525Z,100433.22
2023-01-11T06:51:12.003Z,100442.41
2023-01-11T06:53:41.047Z,100434.53
2023-01-11T06:56:12.317Z,100439.19
2023-01-11T06:58:39.699Z,100429.50
2023-01-11T07:01:07.249Z,100443.09
2023-01-11T07:03:34.556Z,100470.19
2023-01-11T07:06:02.111Z,100465.78
2023-01-11T07:08:28.864Z,100467.47
2023-01-11T07:10:55.742Z,100451.50
2023-01-11T07:13:22.957Z,100453.47
2023-01-11T07:15:52.283Z,100448.06
2023-01-11T07:18:19.951Z,100448.31
2023-01-11T07:20:47.591Z,100450.25
2023-01-11T07:23:14.577Z,100464.72
2023-01-11T07:25:41.784Z,100464.91
2023-01-11T07:28:09.348Z,100473.75
2023-01-11T07:30:56.197Z,100472.16
2023-01-11T07:33:25.897Z,100483.25
2023-01-11T07:35:53.714Z,100494.28
2023-01-11T07:38:20.846Z,100493.53
2023-01-11T07:40:47.868Z,100512.41
2023-01-11T07:43:15.302Z,100501.84
2023-01-11T07:45:48.066Z,100513.72
2023-01-11T07:48:20.693Z,100512.19
2023-01-11T07:50:48.591Z,100518.66
2023-01-11T07:53:15.733Z,100527.69
2023-01-11T07:55:42.841Z,100524.06
2023-01-11T07:58:13.639Z,100540.22
2023-01-11T08:00:41.676Z,100535.78
2023-01-11T08:03:09.405Z,100544.13
2023-01-11T08:05:36.463Z,100547.13
2023-01-11T08:08:04.406Z,100555.09
2023-01-11T08:10:31.626Z,100557.91
2023-01-11T08:13:17.540Z,100562.63
2023-01-11T08:15:44.672Z,100560.94
2023-01-11T08:18:12.505Z,100571.91
2023-01-11T08:20:40.548Z,100579.25
2023-01-11T08:23:10.409Z,100581.28
2023-01-11T08:25:37.931Z,100593.91
2023-01-11T08:28:07.575Z,100605.63
2023-01-11T08:30:36.481Z,100612.88
2023-01-11T08:33:05.532Z,100617.41
2023-01-11T08:35:39.195Z,100632.69
2023-01-11T08:38:06.845Z,100632.78
2023-01-11T08:40:34.182Z,100635.38
2023-01-11T08:43:01.153Z,100643.38
2023-01-11T08:45:28.208Z,100643.28
2023-01-11T08:47:56.019Z,100634.53
2023-01-11T08:50:23.192Z,100640.88
2023-01-11T08:52:51.845Z,100633.00
2023-01-11T08:55:19.936Z,100639.56
2023-01-11T08:57:47.297Z,100636.44
2023-01-11T09:00:15.640Z,100640.16
2023-01-11T09:02:42.716Z,100636.94
2023-01-11T09:05:10.100Z,100646.16
2023-01-11T09:07:37.082Z,100636.56
2023-01-11T09:10:05.337Z,100642.94
2023-01-11T09:12:32.893Z,100651.97
2023-01-11T09:14:59.993Z,100650.22
2023-01-11T09:17:28.023Z,100654.75
2023-01-11T09:19:55.057Z,100658.63
2023-01-11T09:22:22.192Z,100661.41
2023-01-11T09:24:49.441Z,100654.31
2023-01-11T09:27:16.756Z,100671.44
2023-01-11T09:29:46.160Z,100669.81
2023-01-11T09:32:13.121Z,100681.63
2023-01-11T09:34:41.742Z,100685.41
2023-01-11T09:37:08.930Z,100689.25
2023-01-11T09:39:35.759Z,100691.28
2023-01-11T09:42:36.688Z,100691.47
2023-01-11T09:45:17.790Z,100692.63
2023-01-11T09:48:04.951Z,100692.50
2023-01-11T09:50:41.181Z,100698.97
2023-01-11T09:53:22.480Z,100695.09
2023-01-11T09:55:52.894Z,100693.19
2023-01-11T09:58:42.600Z,100695.50
2023-01-11T10:01:39.359Z,100704.44
2023-01-11T10:04:58.669Z,100704.34
2023-01-11T10:07:34.605Z,100718.47
2023-01-11T10:18:31.227Z,100714.81
2023-01-11T10:19:41.745Z,100710.69
2023-01-11T10:22:19.603Z,100709.47
2023-01-11T10:25:21.795Z,100715.75
2023-01-11T10:28:20.114Z,100706.09
2023-01-11T10:30:57.498Z,100713.53
2023-01-11T10:34:14.113Z,100709.78
2023-01-11T10:37:18.761Z,100708.63
2023-01-11T10:40:39.742Z,100717.66
2023-01-11T10:43:21.898Z,100708.16
2023-01-11T10:45:55.698Z,100719.16
2023-01-11T10:48:40.318Z,100721.09
2023-01-11T10:51:42.004Z,100731.81
2023-01-11T10:54:18.128Z,100727.78
2023-01-11T10:57:09.063Z,100724.50
2023-01-11T11:00:04.501Z,100726.53
2023-01-11T11:02:38.858Z,100731.25
2023-01-11T11:06:00.035Z,100727.38
2023-01-11T11:08:40.829Z,100738.47
2023-01-11T11:11:26.795Z,100722.09
2023-01-11T11:14:14.327Z,100734.50
2023-01-11T11:17:01.335Z,100723.25
2023-01-11T11:19:32.989Z,100728.19
2023-01-11T11:22:00.764Z,100726.28
2023-01-11T11:24:52.049Z,100726.34
2023-01-11T11:27:51.544Z,100730.47
2023-01-11T11:30:39.425Z,100730.41
2023-01-11T11:33:20.660Z,100726.16
2023-01-11T11:36:06.690Z,100744.03
2023-01-11T11:39:00.455Z,100745.91
2023-01-11T11:41:27.408Z,100743.97
2023-01-11T11:44:15.134Z,100753.28
2023-01-11T11:46:56.851Z,100737.69
2023-01-11T11:49:24.167Z,100751.25
2023-01-11T11:51:53.051Z,100746.09
2023-01-11T11:54:32.631Z,100748.38
2023-01-11T11:57:25.145Z,100754.69
2023-01-11T12:00:25.297Z,100755.63
2023-01-11T12:03:17.333Z,100749.44
2023-01-11T12:06:10.315Z,100734.50
2023-01-11T12:08:37.518Z,100751.72
2023-01-11T12:11:08.211Z,100745.16
2023-01-11T12:13:38.845Z,100739.84
2023-01-11T12:16:22.983Z,100735.81
2023-01-11T12:18:49.942Z,100734.16
2023-01-11T12:21:23.565Z,100744.13
2023-01-11T12:24:19.138Z,100738.56
2023-01-11T12:27:05.606Z,100756.63
2023-01-11T12:29:47.710Z,100757.06
2023-01-11T12:32:47.841Z,100761.84
2023-01-11T12:35:29.869Z,100761.19
2023-01-11T12:38:05.769Z,100758.25
2023-01-11T12:41:01.603Z,100766.91
2023-01-11T12:43:43.525Z,100765.41
2023-01-11T12:46:41.266Z,100769.69
2023-01-11T12:49:23.408Z,100765.78
2023-01-11T12:52:36.400Z,100763.88
2023-01-11T12:55:50.362Z,100760.06
2023-01-11T12:58:24.141Z,100757.50
2023-01-11T13:01:40.842Z,100766.06
2023-01-11T13:04:45.311Z,100757.88
2023-01-11T13:07:46.019Z,100768.00
2023-01-11T13:10:59.435Z,100765.44
2023-01-11T13:13:53.480Z,100772.25
2023-01-11T13:16:53.599Z,100786.56
2023-01-11T13:19:59.543Z,100780.75
2023-01-11T13:22:35.295Z,100790.69
2023-01-11T13:25:12.584Z,100788.41
2023-01-11T13:27:40.998Z,100783.56
2023-01-11T13:30:14.750Z,100782.03
2023-01-11T13:33:05.679Z,100786.16
2023-01-11T13:35:43.116Z,100784.63
2023-01-11T13:38:39.983Z,100780.31
2023-01-11T13:41:26.591Z,100780.81
2023-01-11T13:44:18.106Z,100782.25
2023-01-11T13:47:07.018Z,100780.09
2023-01-11T13:50:14.428Z,100782.47
2023-01-11T13:52:53.147Z,100775.13
2023-01-11T13:55:35.221Z,100786.25
2023-01-11T13:58:42.375Z,100776.22
2023-01-11T14:01:19.853Z,100771.00
2023-01-11T14:04:06.033Z,100778.66
2023-01-11T14:07:08.770Z,100774.25
2023-01-11T14:10:06.687Z,100776.84
2023-01-11T14:13:01.491Z,100773.81
2023-01-11T14:15:40.982Z,100765.63
2023-01-11T14:18:16.717Z,100759.91
2023-01-11T14:20:55.181Z,100769.97
2023-01-11T14:23:54.889Z,100747.06
2023-01-11T14:26:55.791Z,100758.91
2023-01-11T14:30:11.343Z,100759.34
2023-01-11T14:33:20.742Z,100755.34
2023-01-11T14:36:28.849Z,100759.34
2023-01-11T14:39:41.446Z,100750.50
2023-01-11T14:42:35.262Z,100763.91
2023-01-11T14:45:26.620Z,100769.72
2023-01-11T14:48:15.961Z,100766.47
2023-01-11T14:51:33.256Z,100784.84
2023-01-11T14:54:44.963Z,100781.03
2023-01-11T14:57:39.860Z,100785.88
2023-01-11T15:00:18.957Z,100782.41
2023-01-11T15:02:51.212Z,100779.06
2023-01-11T15:05:53.840Z,100776.69
2023-01-11T15:08:27.044Z,100781.28
2023-01-11T15:11:16.299Z,100781.28
2023-01-11T15:13:52.759Z,100771.59
2023-01-11T15:16:59.322Z,100767.47
2023-01-11T15:19:34.302Z,100765.97
2023-01-11T15:22:05.928Z,100771.56
2023-01-11T15:24:41.067Z,100771.75
2023-01-11T15:27:26.478Z,100770.25
2023-01-11T15:29:59.136Z,100763.34
2023-01-11T15:32:35.782Z,100766.97
2023-01-11T15:35:33.665Z,100768.06
2023-01-11T15:38:30.390Z,100777.44
2023-01-11T15:41:21.335Z,100783.78
2023-01-11T15:44:17.369Z,100773.22
2023-01-11T15:47:50.497Z,100771.66
2023-01-11T15:51:03.562Z,100784.63
2023-01-11T15:54:08.756Z,100795.59
2023-01-11T15:56:35.664Z,100792.34
2023-01-11T15:59:23.837Z,100792.34
2023-01-11T16:02:15.777Z,100782.41
2023-01-11T16:04:53.352Z,100783.47
2023-01-11T16:07:53.719Z,100787.34
2023-01-11T16:10:51.627Z,100801.88
2023-01-11T16:14:00.263Z,100806.97
2023-01-11T16:16:33.369Z,100811.53
2023-01-11T16:19:21.995Z,100810.44
2023-01-11T16:21:55.647Z,100802.16
2023-01-11T16:24:29.591Z,100800.41
2023-01-11T16:27:01.765Z,100805.63
2023-01-11T16:29:37.267Z,100815.84
2023-01-11T16:32:19.339Z,100819.69
2023-01-11T16:34:47.098Z,100814.69
2023-01-11T16:37:27.138Z,100814.34
2023-01-11T16:40:10.569Z,100819.16
2023-01-11T16:42:50.196Z,100819.34
2023-01-11T16:45:23.165Z,100802.50
2023-01-11T16:48:02.049Z,100809.16
2023-01-11T16:50:29.780Z,100790.59
2023-01-11T16:53:00.254Z,100806.09
2023-01-11T16:55:36.890Z,100797.25
2023-01-11T16:58:20.801Z,100801.97
2023-01-11T17:01:16.543Z,100797.81
2023-01-11T17:03:55.015Z,100799.94
2023-01-11T17:06:25.072Z,100808.19
2023-01-11T17:08:57.398Z,100806.50
2023-01-11T17:11:50.543Z,100818.22
2023-01-11T17:14:37.009Z,100822.44
2023-01-11T17:17:08.392Z,100815.03
2023-01-11T17:19:43.177Z,100820.06
2023-01-11T17:22:29.523Z,100826.19
2023-01-11T17:25:12.788Z,100826.19
2023-01-11T17:27:50.104Z,100828.91
2023-01-11T17:30:25.852Z,100814.66
2023-01-11T17:32:58.964Z,100822.84
2023-01-11T17:35:36.589Z,100821.09
2023-01-11T17:38:08.150Z,100833.78
2023-01-11T17:40:39.502Z,100822.84
2023-01-11T17:43:44.206Z,100815.91
2023-01-11T17:46:19.352Z,100815.25
2023-01-11T17:48:59.605Z,100821.84
2023-01-11T17:51:31.479Z,100809.53
2023-01-11T17:53:58.394Z,100824.94
2023-01-11T17:56:41.807Z,100804.38
2023-01-11T17:59:11.465Z,100808.88
2023-01-11T18:01:38.855Z,100826.28
2023-01-11T18:04:05.726Z,100819.34
2023-01-11T18:06:42.468Z,100818.41
2023-01-11T18:09:31.847Z,100819.94
2023-01-11T18:12:14.271Z,100811.56
2023-01-11T18:14:53.343Z,100809.53
2023-01-11T18:17:46.459Z,100803.41
2023-01-11T18:20:16.330Z,100790.91
2023-01-11T18:23:07.801Z,100782.84
2023-01-11T18:25:35.891Z,100785.72
2023-01-11T18:28:12.022Z,100786.75
2023-01-11T18:30:46.124Z,100784.19
2023-01-11T18:33:19.839Z,100776.28
2023-01-11T18:35:50.685Z,100788.00
2023-01-11T18:38:36.521Z,100773.59
2023-01-11T18:41:27.576Z,100790.50
2023-01-11T18:43:55.652Z,100766.09
2023-01-11T18:46:22.648Z,100763.41
2023-01-11T18:48:49.700Z,100765.13
2023-01-11T18:51:34.300Z,100770.31
2023-01-11T18:54:01.636Z,100759.38
2023-01-11T18:56:28.613Z,100748.38
2023-01-11T18:58:55.495Z,100753.56
2023-01-11T19:01:23.150Z,100742.81
2023-01-11T19:03:51.115Z,100733.78
2023-01-11T19:06:21.067Z,100739.72
2023-01-11T19:08:47.910Z,100727.81
2023-01-11T19:11:16.465Z,100736.66
2023-01-11T19:13:45.076Z,100727.03
2023-01-11T19:16:13.340Z,100720.09
2023-01-11T19:18:40.272Z,100738.94
2023-01-11T19:21:09.192Z,100723.88
2023-01-11T19:23:36.006Z,100716.06
2023-01-11T19:26:03.171Z,100710.91
2023-01-11T19:28:30.408Z,100691.06
2023-01-11T19:30:57.668Z,100698.53
2023-01-11T19:33:25.170Z,100694.72
2023-01-11T19:35:52.075Z,100685.47
2023-01-11T19:38:20.256Z,100687.94
2023-01-11T19:40:50.352Z,100682.56
2023-01-11T19:43:17.618Z,100696.81
2023-01-11T19:45:44.547Z,100709.31
2023-01-11T19:48:12.328Z,100688.31
2023-01-11T19:50:39.194Z,100682.84
2023-01-11T19:53:06.028Z,100680.03
2023-01-11T19:55:32.877Z,100685.03
2023-01-11T19:57:59.783Z,100685.78
2023-01-11T20:00:26.644Z,100688.31
2023-01-11T20:02:53.623Z,100702.78
2023-01-11T20:05:20.567Z,100703.94
2023-01-11T20:07:47.517Z,100723.41
2023-01-11T20:10:14.414Z,100685.97
2023-01-11T20:12:41.279Z,100689.72
2023-01-11T20:15:08.792Z,100681.44
2023-01-11T20:17:37.862Z,100669.50
2023-01-11T20:20:07.028Z,100671.59
2023-01-11T20:22:34.134Z,100673.50
2023-01-11T20:25:01.024Z,100662.09
2023-01-11T20:27:29.305Z,100647.97
2023-01-11T20:29:56.121Z,100650.66
2023-01-11T20:32:40.201Z,100640.78
2023-01-11T20:35:09.522Z,100641.72
2023-01-11T20:37:36.786Z,100635.50
2023-01-11T20:40:04.155Z,100634.53
2023-01-11T20:42:31.503Z,100632.59
2023-01-11T20:44:58.592Z,100638.88
2023-01-11T20:47:25.401Z,100627.03
2023-01-11T20:49:52.239Z,100631.56
2023-01-11T20:52:19.124Z,100629.13
2023-01-11T20:54:46.019Z,100642.03
2023-01-11T20:57:12.968Z,100627.78
2023-01-11T20:59:39.876Z,100629.78
2023-01-11T21:02:07.712Z,100647.75
2023-01-11T21:04:35.773Z,100644.28
2023-01-11T21:07:02.769Z,100639.88
2023-01-11T21:09:29.712Z,100635.47
2023-01-11T21:11:56.797Z,100637.16
2023-01-11T21:14:23.779Z,100629.31
2023-01-11T21:16:50.798Z,100620.88
2023-01-11T21:19:17.855Z,100629.09
2023-01-11T21:21:44.837Z,100632.00
2023-01-11T21:24:14.907Z,100617.59
2023-01-11T21:26:43.636Z,100622.97
2023-01-11T21:29:11.731Z,100619.94
2023-01-11T21:31:40.291Z,100627.44
2023-01-11T21:34:08.200Z,100634.94
2023-01-11T21:36:35.225Z,100632.72
2023-01-11T21:39:03.379Z,100636.88
2023-01-11T21:41:51.719Z,100646.25
2023-01-11T21:44:20.742Z,100654.16
2023-01-11T21:46:56.896Z,100647.06
2023-01-11T21:49:25.046Z,100636.09
2023-01-11T21:51:52.882Z,100639.53
2023-01-11T21:54:20.315Z,100618.69
2023-01-11T21:56:48.774Z,100623.91
2023-01-11T21:59:16.718Z,100632.66
2023-01-11T22:01:45.974Z,100618.13
2023-01-11T22:04:16.321Z,100618.78
2023-01-11T22:06:50.884Z,100629.38
2023-01-11T22:09:18.996Z,100616.19
2023-01-11T22:11:46.520Z,100643.81
2023-01-11T22:14:13.599Z,100629.94
2023-01-11T22:16:40.886Z,100621.38
2023-01-11T22:19:08.668Z,100633.22
2023-01-11T22:21:37.130Z,100626.88
2023-01-11T22:24:05.901Z,100625.31
2023-01-11T22:26:36.465Z,100618.22
2023-01-11T22:29:12.993Z,100607.16
2023-01-11T22:31:51.516Z,100607.84
2023-01-11T22:34:19.195Z,100602.28
2023-01-11T22:36:46.522Z,100611.13
2023-01-11T22:39:16.147Z,100623.63
2023-01-11T22:41:46.045Z,100610.16
2023-01-11T22:44:13.569Z,100629.84
2023-01-11T22:46:40.925Z,100615.66
2023-01-11T22:49:08.816Z,100596.91
2023-01-11T22:51:36.571Z,100623.97
2023-01-11T22:54:04.533Z,100614.97
2023-01-11T22:56:32.782Z,100604.22
2023-01-11T22:59:00.363Z,100622.06
2023-01-11T23:01:29.925Z,100622.28
2023-01-11T23:03:58.057Z,100640.13
2023-01-11T23:06:28.953Z,100643.56
2023-01-11T23:08:56.849Z,100643.56
2023-01-11T23:11:50.291Z,100642.53
2023-01-11T23:14:19.429Z,100634.75
2023-01-11T23:16:49.839Z,100636.66
2023-01-11T23:19:20.360Z,100631.69
2023-01-11T23:21:48.075Z,100635.31
2023-01-11T23:24:17.144Z,100608.63
2023-01-11T23:26:45.287Z,100618.81
2023-01-11T23:29:12.292Z,100630.88
2023-01-11T23:31:39.349Z,100620.53
2023-01-11T23:34:09.603Z,100616.19
2023-01-11T23:36:43.121Z,100623.38
2023-01-11T23:39:14.691Z,100610.72
2023-01-11T23:42:00.267Z,100629.53
2023-01-11T23:44:27.532Z,100635.09
2023-01-11T23:47:12.781Z,100630.00
2023-01-11T23:49:39.822Z,100622.97
2023-01-11T23:52:07.033Z,100646.31
2023-01-11T23:54:34.619Z,100635.47
2023-01-11T23:57:03.271Z,100639.09
2023-01-11T23:59:30.690Z,100638.91
